sensor_id;sensor_type;location;lat;lon;timestamp;pressure;altitude;pressure_sealevel;temperature;humidity
69751;BME280;57335;52.288;6.056;2023-03-13T00:00:23;100197.63;;;8.78;100.00
69751;BME280;57335;52.288;6.056;2023-03-13T00:02:49;100206.06;;;8.80;100.00
69751;BME280;57335;52.288;6.056;2023-03-13T00:05:16;100197.06;;;8.76;100.00
69751;BME280;57335;52.288;6.056;2023-03-13T00:07:42;100200.84;;;8.80;100.00
69751;BME280;57335;52.288;6.056;2023-03-13T00:10:09;100197.78;;;8.83;100.00
69751;BME280;57335;52.288;6.056;2023-03-13T00:12:35;100178.75;;;8.76;100.00
69751;BME280;57335;52.288;6.056;2023-03-13T00:15:02;100176.38;;;8.68;100.00
69751;BME280;57335;52.288;6.056;2023-03-13T00:17:28;100175.97;;;8.71;100.00
69751;BME280;57335;52.288;6.056;2023-03-13T00:19:55;100175.53;;;8.74;100.00
69751;BME280;57335;52.288;6.056;2023-03-13T00:22:21;100162.72;;;8.66;100.00
69751;BME280;57335;52.288;6.056;2023-03-13T00:24:47;100152.69;;;8.63;100.00
69751;BME280;57335;52.288;6.056;2023-03-13T00:27:14;100148.13;;;8.58;100.00
69751;BME280;57335;52.288;6.056;2023-03-13T00:29:40;100143.69;;;8.58;100.00
69751;BME280;57335;52.288;6.056;2023-03-13T00:32:07;100135.06;;;8.51;100.00
69751;BME280;57335;52.288;6.056;2023-03-13T00:34:33;100129.47;;;8.48;100.00
69751;BME280;57335;52.288;6.056;2023-03-13T00:37:00;100118.63;;;8.51;100.00
69751;BME280;57335;52.288;6.056;2023-03-13T00:39:26;100112.81;;;8.49;100.00
69751;BME280;57335;52.288;6.056;2023-03-13T00:41:52;100115.59;;;8.54;100.00
69751;BME280;57335;52.288;6.056;2023-03-13T00:44:19;100113.78;;;8.54;100.00
69751;BME280;57335;52.288;6.056;2023-03-13T00:46:45;100107.53;;;8.55;100.00
69751;BME280;57335;52.288;6.056;2023-03-13T00:49:11;100077.69;;;8.38;100.00
69751;BME280;57335;52.288;6.056;2023-03-13T00:51:38;100101.69;;;8.60;100.00
69751;BME280;57335;52.288;6.056;2023-03-13T00:54:04;100091.84;;;8.55;100.00
69751;BME280;57335;52.288;6.056;2023-03-13T00:56:31;100070.81;;;8.50;100.00
69751;BME280;57335;52.288;6.056;2023-03-13T00:58:58;100070.59;;;8.52;100.00
69751;BME280;57335;52.288;6.056;2023-03-13T01:01:28;100079.97;;;8.59;100.00
69751;BME280;57335;52.288;6.056;2023-03-13T01:03:58;100050.31;;;8.54;100.00
69751;BME280;57335;52.288;6.056;2023-03-13T01:06:29;100052.91;;;8.54;100.00
69751;BME280;57335;52.288;6.056;2023-03-13T01:08:56;100045.88;;;8.54;100.00
69751;BME280;57335;52.288;6.056;2023-03-13T01:11:29;100023.03;;;8.43;100.00
69751;BME280;57335;52.288;6.056;2023-03-13T01:13:58;100008.78;;;8.39;100.00
69751;BME280;57335;52.288;6.056;2023-03-13T01:16:26;99999.19;;;8.33;100.00
69751;BME280;57335;52.288;6.056;2023-03-13T01:18:55;100019.22;;;8.39;100.00
69751;BME280;57335;52.288;6.056;2023-03-13T01:21:23;99997.00;;;8.30;100.00
69751;BME280;57335;52.288;6.056;2023-03-13T01:23:50;100000.13;;;8.45;100.00
69751;BME280;57335;52.288;6.056;2023-03-13T01:26:18;99978.72;;;8.30;100.00
69751;BME280;57335;52.288;6.056;2023-03-13T01:28:44;99979.69;;;8.35;100.00
69751;BME280;57335;52.288;6.056;2023-03-13T01:33:40;99961.28;;;8.24;100.00
69751;BME280;57335;52.288;6.056;2023-03-13T01:36:07;99956.03;;;8.30;100.00
69751;BME280;57335;52.288;6.056;2023-03-13T01:38:35;99954.41;;;8.36;100.00
69751;BME280;57335;52.288;6.056;2023-03-13T01:41:02;99946.13;;;8.39;100.00
69751;BME280;57335;52.288;6.056;2023-03-13T01:43:30;99965.44;;;8.38;100.00
69751;BME280;57335;52.288;6.056;2023-03-13T01:48:36;99930.00;;;8.49;100.00
69751;BME280;57335;52.288;6.056;2023-03-13T01:51:11;99922.25;;;8.35;100.00
69751;BME280;57335;52.288;6.056;2023-03-13T01:53:41;99916.31;;;8.53;100.00
69751;BME280;57335;52.288;6.056;2023-03-13T01:56:13;99893.28;;;8.44;100.00
69751;BME280;57335;52.288;6.056;2023-03-13T01:58:43;99897.31;;;8.46;100.00
69751;BME280;57335;52.288;6.056;2023-03-13T02:01:10;99885.53;;;8.55;100.00
69751;BME280;57335;52.288;6.056;2023-03-13T02:03:38;99875.06;;;8.62;100.00
69751;BME280;57335;52.288;6.056;2023-03-13T02:06:05;99863.94;;;8.48;100.00
69751;BME280;57335;52.288;6.056;2023-03-13T02:08:37;99847.41;;;8.54;100.00
69751;BME280;57335;52.288;6.056;2023-03-13T02:11:47;99857.06;;;8.72;100.00
69751;BME280;57335;52.288;6.056;2023-03-13T02:14:15;99836.00;;;8.67;100.00
69751;BME280;57335;52.288;6.056;2023-03-13T02:16:42;99840.00;;;8.70;100.00
69751;BME280;57335;52.288;6.056;2023-03-13T02:19:19;99840.16;;;8.75;100.00
69751;BME280;57335;52.288;6.056;2023-03-13T02:27:25;99812.41;;;8.92;100.00
69751;BME280;57335;52.288;6.056;2023-03-13T02:29:52;99785.47;;;8.92;100.00
69751;BME280;57335;52.288;6.056;2023-03-13T02:32:18;99793.66;;;8.95;100.00
69751;BME280;57335;52.288;6.056;2023-03-13T02:34:47;99797.00;;;9.03;100.00
69751;BME280;57335;52.288;6.056;2023-03-13T02:37:16;99785.66;;;9.09;100.00
69751;BME280;57335;52.288;6.056;2023-03-13T02:39:46;99782.94;;;9.15;100.00
69751;BME280;57335;52.288;6.056;2023-03-13T02:42:17;99762.19;;;9.21;100.00
69751;BME280;57335;52.288;6.056;2023-03-13T02:44:46;99755.66;;;9.11;100.00
69751;BME280;57335;52.288;6.056;2023-03-13T02:47:23;99765.63;;;9.33;100.00
69751;BME280;57335;52.288;6.056;2023-03-13T02:49:50;99751.50;;;9.34;100.00
69751;BME280;57335;52.288;6.056;2023-03-13T02:52:22;99741.94;;;9.28;100.00
69751;BME280;57335;52.288;6.056;2023-03-13T02:54:55;99723.97;;;9.19;100.00
69751;BME280;57335;52.288;6.056;2023-03-13T02:57:22;99759.72;;;9.37;100.00
69751;BME280;57335;52.288;6.056;2023-03-13T02:59:49;99750.84;;;9.38;100.00
69751;BME280;57335;52.288;6.056;2023-03-13T03:02:15;99724.72;;;9.38;100.00
69751;BME280;57335;52.288;6.056;2023-03-13T03:04:41;99718.19;;;9.29;100.00
69751;BME280;57335;52.288;6.056;2023-03-13T03:07:08;99743.69;;;9.46;100.00
69751;BME280;57335;52.288;6.056;2023-03-13T03:09:34;99736.75;;;9.51;100.00
69751;BME280;57335;52.288;6.056;2023-03-13T03:12:00;99725.41;;;9.57;100.00
69751;BME280;57335;52.288;6.056;2023-03-13T03:14:27;99712.53;;;9.56;100.00
69751;BME280;57335;52.288;6.056;2023-03-13T03:16:53;99703.78;;;9.62;100.00
69751;BME280;57335;52.288;6.056;2023-03-13T03:19:19;99737.91;;;9.67;100.00
69751;BME280;57335;52.288;6.056;2023-03-13T03:21:46;99720.75;;;9.71;100.00
69751;BME280;57335;52.288;6.056;2023-03-13T03:24:12;99709.84;;;9.74;100.00
69751;BME280;57335;52.288;6.056;2023-03-13T03:26:39;99696.75;;;9.74;100.00
69751;BME280;57335;52.288;6.056;2023-03-13T03:29:05;99717.69;;;9.86;100.00
69751;BME280;57335;52.288;6.056;2023-03-13T03:31:31;99726.66;;;9.90;100.00
69751;BME280;57335;52.288;6.056;2023-03-13T03:33:58;99705.72;;;9.90;100.00
69751;BME280;57335;52.288;6.056;2023-03-13T03:36:25;99707.09;;;9.93;100.00
69751;BME280;57335;52.288;6.056;2023-03-13T03:38:51;99696.16;;;9.96;100.00
69751;BME280;57335;52.288;6.056;2023-03-13T03:41:18;99701.38;;;9.96;100.00
69751;BME280;57335;52.288;6.056;2023-03-13T03:43:45;99712.06;;;10.06;100.00
69751;BME280;57335;52.288;6.056;2023-03-13T03:46:13;99686.03;;;9.99;100.00
69751;BME280;57335;52.288;6.056;2023-03-13T03:48:40;99697.97;;;10.07;100.00
69751;BME280;57335;52.288;6.056;2023-03-13T03:51:06;99688.63;;;10.11;100.00
69751;BME280;57335;52.288;6.056;2023-03-13T03:53:33;99691.25;;;10.11;100.00
69751;BME280;57335;52.288;6.056;2023-03-13T03:56:00;99701.91;;;10.22;100.00
69751;BME280;57335;52.288;6.056;2023-03-13T03:58:26;99689.50;;;10.29;100.00
69751;BME280;57335;52.288;6.056;2023-03-13T04:00:56;99674.38;;;10.31;100.00
69751;BME280;57335;52.288;6.056;2023-03-13T04:03:23;99671.63;;;10.37;100.00
69751;BME280;57335;52.288;6.056;2023-03-13T04:05:49;99669.69;;;10.33;100.00
69751;BME280;57335;52.288;6.056;2023-03-13T04:08:16;99667.28;;;10.43;100.00
69751;BME280;57335;52.288;6.056;2023-03-13T04:10:42;99667.03;;;10.45;100.00
69751;BME280;57335;52.288;6.056;2023-03-13T04:13:09;99663.03;;;10.42;100.00
69751;BME280;57335;52.288;6.056;2023-03-13T04:15:37;99666.34;;;10.49;100.00
69751;BME280;57335;52.288;6.056;2023-03-13T04:18:04;99662.44;;;10.52;100.00
69751;BME280;57335;52.288;6.056;2023-03-13T04:20:30;99677.88;;;10.65;100.00
69751;BME280;57335;52.288;6.056;2023-03-13T04:22:57;99668.97;;;10.66;100.00
69751;BME280;57335;52.288;6.056;2023-03-13T04:25:23;99677.97;;;10.70;100.00
69751;BME280;57335;52.288;6.056;2023-03-13T04:27:50;99652.03;;;10.69;100.00
69751;BME280;57335;52.288;6.056;2023-03-13T04:30:16;99647.22;;;10.66;100.00
69751;BME280;57335;52.288;6.056;2023-03-13T04:32:44;99658.94;;;10.75;100.00
69751;BME280;57335;52.288;6.056;2023-03-13T04:35:10;99658.22;;;10.80;100.00
69751;BME280;57335;52.288;6.056;2023-03-13T04:37:37;99660.06;;;10.79;100.00
69751;BME280;57335;52.288;6.056;2023-03-13T04:40:04;99653.53;;;10.82;100.00
69751;BME280;57335;52.288;6.056;2023-03-13T04:42:30;99641.09;;;10.89;100.00
69751;BME280;57335;52.288;6.056;2023-03-13T04:44:56;99637.59;;;10.83;100.00
69751;BME280;57335;52.288;6.056;2023-03-13T04:47:23;99628.66;;;10.84;100.00
69751;BME280;57335;52.288;6.056;2023-03-13T04:49:49;99626.59;;;10.86;100.00
69751;BME280;57335;52.288;6.056;2023-03-13T04:52:15;99630.44;;;10.95;100.00
69751;BME280;57335;52.288;6.056;2023-03-13T04:54:42;99624.19;;;10.96;100.00
69751;BME280;57335;52.288;6.056;2023-03-13T04:57:08;99624.25;;;11.02;100.00
69751;BME280;57335;52.288;6.056;2023-03-13T04:59:34;99618.28;;;11.06;100.00
69751;BME280;57335;52.288;6.056;2023-03-13T05:02:01;99608.03;;;11.05;100.00
69751;BME280;57335;52.288;6.056;2023-03-13T05:04:27;99592.53;;;11.03;100.00
69751;BME280;57335;52.288;6.056;2023-03-13T05:06:54;99603.09;;;11.08;100.00
69751;BME280;57335;52.288;6.056;2023-03-13T05:09:20;99587.44;;;11.13;100.00
69751;BME280;57335;52.288;6.056;2023-03-13T05:11:46;99585.63;;;11.14;100.00
69751;BME280;57335;52.288;6.056;2023-03-13T05:14:12;99579.25;;;11.10;100.00
69751;BME280;57335;52.288;6.056;2023-03-13T05:16:39;99605.47;;;11.27;100.00
69751;BME280;57335;52.288;6.056;2023-03-13T05:19:05;99577.84;;;11.19;100.00
69751;BME280;57335;52.288;6.056;2023-03-13T05:21:31;99571.06;;;11.23;100.00
69751;BME280;57335;52.288;6.056;2023-03-13T05:23:58;99571.13;;;11.28;100.00
69751;BME280;57335;52.288;6.056;2023-03-13T05:26:24;99588.28;;;11.36;100.00
69751;BME280;57335;52.288;6.056;2023-03-13T05:28:51;99564.31;;;11.27;100.00
69751;BME280;57335;52.288;6.056;2023-03-13T05:31:17;99574.94;;;11.37;100.00
69751;BME280;57335;52.288;6.056;2023-03-13T05:33:43;99578.41;;;11.43;100.00
69751;BME280;57335;52.288;6.056;2023-03-13T05:36:10;99580.81;;;11.45;100.00
69751;BME280;57335;52.288;6.056;2023-03-13T05:38:36;99582.16;;;11.47;100.00
69751;BME280;57335;52.288;6.056;2023-03-13T05:41:03;99582.19;;;11.52;100.00
69751;BME280;57335;52.288;6.056;2023-03-13T05:43:29;99576.91;;;11.47;100.00
69751;BME280;57335;52.288;6.056;2023-03-13T05:45:56;99561.09;;;11.42;100.00
69751;BME280;57335;52.288;6.056;2023-03-13T05:48:22;99570.38;;;11.50;100.00
69751;BME280;57335;52.288;6.056;2023-03-13T05:50:49;99576.94;;;11.52;100.00
69751;BME280;57335;52.288;6.056;2023-03-13T05:53:15;99568.53;;;11.50;100.00
69751;BME280;57335;52.288;6.056;2023-03-13T05:55:42;99589.91;;;11.59;100.00
69751;BME280;57335;52.288;6.056;2023-03-13T05:58:09;99573.31;;;11.53;100.00
69751;BME280;57335;52.288;6.056;2023-03-13T06:00:35;99555.72;;;11.54;100.00
69751;BME280;57335;52.288;6.056;2023-03-13T06:03:01;99567.81;;;11.55;100.00
69751;BME280;57335;52.288;6.056;2023-03-13T06:05:28;99558.34;;;11.54;100.00
69751;BME280;57335;52.288;6.056;2023-03-13T06:07:54;99555.97;;;11.52;100.00
69751;BME280;57335;52.288;6.056;2023-03-13T06:10:21;99574.72;;;11.61;100.00
69751;BME280;57335;52.288;6.056;2023-03-13T06:12:53;99582.50;;;11.56;100.00
69751;BME280;57335;52.288;6.056;2023-03-13T06:15:19;99551.34;;;11.60;100.00
69751;BME280;57335;52.288;6.056;2023-03-13T06:17:46;99556.41;;;11.66;100.00
69751;BME280;57335;52.288;6.056;2023-03-13T06:20:13;99562.19;;;11.68;100.00
69751;BME280;57335;52.288;6.056;2023-03-13T06:22:40;99551.16;;;11.66;100.00
69751;BME280;57335;52.288;6.056;2023-03-13T06:25:08;99559.41;;;11.75;100.00
69751;BME280;57335;52.288;6.056;2023-03-13T06:27:34;99555.19;;;11.74;100.00
69751;BME280;57335;52.288;6.056;2023-03-13T06:30:01;99549.13;;;11.73;100.00
69751;BME280;57335;52.288;6.056;2023-03-13T06:32:28;99548.94;;;11.80;100.00
69751;BME280;57335;52.288;6.056;2023-03-13T06:34:55;99536.25;;;11.72;100.00
69751;BME280;57335;52.288;6.056;2023-03-13T06:37:21;99528.19;;;11.78;100.00
69751;BME280;57335;52.288;6.056;2023-03-13T06:39:48;99531.41;;;11.86;100.00
69751;BME280;57335;52.288;6.056;2023-03-13T06:42:14;99533.09;;;11.92;100.00
69751;BME280;57335;52.288;6.056;2023-03-13T06:44:40;99533.09;;;11.92;100.00
69751;BME280;57335;52.288;6.056;2023-03-13T06:47:07;99534.19;;;11.96;100.00
69751;BME280;57335;52.288;6.056;2023-03-13T06:49:34;99523.44;;;11.97;100.00
69751;BME280;57335;52.288;6.056;2023-03-13T06:52:00;99548.72;;;12.04;100.00
69751;BME280;57335;52.288;6.056;2023-03-13T06:54:27;99518.44;;;11.96;100.00
69751;BME280;57335;52.288;6.056;2023-03-13T06:56:53;99546.09;;;12.04;100.00
69751;BME280;57335;52.288;6.056;2023-03-13T06:59:20;99542.44;;;12.05;100.00
69751;BME280;57335;52.288;6.056;2023-03-13T07:01:46;99531.13;;;12.04;100.00
69751;BME280;57335;52.288;6.056;2023-03-13T07:04:13;99535.66;;;12.09;100.00
69751;BME280;57335;52.288;6.056;2023-03-13T07:06:39;99521.69;;;12.08;100.00
69751;BME280;57335;52.288;6.056;2023-03-13T07:09:06;99520.56;;;11.99;100.00
69751;BME280;57335;52.288;6.056;2023-03-13T07:11:32;99516.44;;;12.08;100.00
69751;BME280;57335;52.288;6.056;2023-03-13T07:13:58;99505.84;;;11.98;100.00
69751;BME280;57335;52.288;6.056;2023-03-13T07:16:41;99516.19;;;12.10;100.00
69751;BME280;57335;52.288;6.056;2023-03-13T07:19:08;99527.50;;;12.10;100.00
69751;BME280;57335;52.288;6.056;2023-03-13T07:21:34;99530.22;;;12.21;100.00
69751;BME280;57335;52.288;6.056;2023-03-13T07:24:00;99533.38;;;12.23;100.00
69751;BME280;57335;52.288;6.056;2023-03-13T07:26:27;99510.50;;;12.18;100.00
69751;BME280;57335;52.288;6.056;2023-03-13T07:28:54;99515.53;;;12.25;100.00
69751;BME280;57335;52.288;6.056;2023-03-13T07:31:21;99523.19;;;12.26;100.00
69751;BME280;57335;52.288;6.056;2023-03-13T07:33:47;99523.19;;;12.26;100.00
69751;BME280;57335;52.288;6.056;2023-03-13T07:36:14;99528.50;;;12.31;100.00
69751;BME280;57335;52.288;6.056;2023-03-13T07:38:41;99542.16;;;12.33;100.00
69751;BME280;57335;52.288;6.056;2023-03-13T07:41:10;99522.69;;;12.29;100.00
69751;BME280;57335;52.288;6.056;2023-03-13T07:43:37;99537.47;;;12.41;100.00
69751;BME280;57335;52.288;6.056;2023-03-13T07:46:05;99529.88;;;12.39;100.00
69751;BME280;57335;52.288;6.056;2023-03-13T07:48:37;99529.34;;;12.42;100.00
69751;BME280;57335;52.288;6.056;2023-03-13T07:51:05;99522.47;;;12.36;100.00
69751;BME280;57335;52.288;6.056;2023-03-13T07:53:33;99530.91;;;12.38;100.00
69751;BME280;57335;52.288;6.056;2023-03-13T07:56:09;99521.69;;;12.35;100.00
69751;BME280;57335;52.288;6.056;2023-03-13T07:58:38;99528.78;;;12.35;100.00
69751;BME280;57335;52.288;6.056;2023-03-13T08:01:13;99522.94;;;12.28;100.00
69751;BME280;57335;52.288;6.056;2023-03-13T08:03:41;99534.03;;;12.35;100.00
69751;BME280;57335;52.288;6.056;2023-03-13T08:06:09;99543.56;;;12.41;100.00
69751;BME280;57335;52.288;6.056;2023-03-13T08:08:37;99528.81;;;12.40;100.00
69751;BME280;57335;52.288;6.056;2023-03-13T08:11:10;99538.25;;;12.36;100.00
69751;BME280;57335;52.288;6.056;2023-03-13T08:13:37;99538.44;;;12.29;100.00
69751;BME280;57335;52.288;6.056;2023-03-13T08:16:09;99520.31;;;12.28;100.00
69751;BME280;57335;52.288;6.056;2023-03-13T08:18:38;99534.22;;;12.28;100.00
69751;BME280;57335;52.288;6.056;2023-03-13T08:21:07;99555.31;;;12.33;100.00
69751;BME280;57335;52.288;6.056;2023-03-13T08:23:34;99536.16;;;12.38;100.00
69751;BME280;57335;52.288;6.056;2023-03-13T08:26:03;99542.25;;;12.44;100.00
69751;BME280;57335;52.288;6.056;2023-03-13T08:28:30;99524.34;;;12.41;100.00
69751;BME280;57335;52.288;6.056;2023-03-13T08:30:56;99538.63;;;12.50;100.00
69751;BME280;57335;52.288;6.056;2023-03-13T08:33:23;99532.59;;;12.54;100.00
69751;BME280;57335;52.288;6.056;2023-03-13T08:35:49;99517.91;;;12.58;100.00
69751;BME280;57335;52.288;6.056;2023-03-13T08:38:16;99524.31;;;12.68;100.00
69751;BME280;57335;52.288;6.056;2023-03-13T08:40:42;99519.81;;;12.63;100.00
69751;BME280;57335;52.288;6.056;2023-03-13T08:43:08;99515.09;;;12.65;100.00
69751;BME280;57335;52.288;6.056;2023-03-13T08:45:35;99531.66;;;12.66;100.00
69751;BME280;57335;52.288;6.056;2023-03-13T08:48:01;99510.31;;;12.57;100.00
69751;BME280;57335;52.288;6.056;2023-03-13T08:50:27;99516.09;;;12.59;100.00
69751;BME280;57335;52.288;6.056;2023-03-13T08:52:54;99521.09;;;12.61;100.00
69751;BME280;57335;52.288;6.056;2023-03-13T08:55:20;99503.69;;;12.54;100.00
69751;BME280;57335;52.288;6.056;2023-03-13T08:57:46;99505.16;;;12.72;100.00
69751;BME280;57335;52.288;6.056;2023-03-13T09:00:13;99509.03;;;12.65;100.00
69751;BME280;57335;52.288;6.056;2023-03-13T09:02:40;99489.66;;;12.71;100.00
69751;BME280;57335;52.288;6.056;2023-03-13T09:05:06;99507.53;;;12.74;100.00
69751;BME280;57335;52.288;6.056;2023-03-13T09:07:33;99524.91;;;12.80;100.00
69751;BME280;57335;52.288;6.056;2023-03-13T09:09:59;99504.66;;;12.75;100.00
69751;BME280;57335;52.288;6.056;2023-03-13T09:12:25;99492.03;;;12.77;100.00
69751;BME280;57335;52.288;6.056;2023-03-13T09:14:56;99502.03;;;12.75;100.00
69751;BME280;57335;52.288;6.056;2023-03-13T09:17:23;99503.88;;;12.80;100.00
69751;BME280;57335;52.288;6.056;2023-03-13T09:19:49;99495.53;;;12.88;100.00
69751;BME280;57335;52.288;6.056;2023-03-13T09:22:25;99482.91;;;12.85;100.00
69751;BME280;57335;52.288;6.056;2023-03-13T09:24:52;99489.72;;;12.86;100.00
69751;BME280;57335;52.288;6.056;2023-03-13T09:27:18;99482.13;;;12.90;100.00
69751;BME280;57335;52.288;6.056;2023-03-13T09:29:45;99485.59;;;12.95;100.00
69751;BME280;57335;52.288;6.056;2023-03-13T09:32:11;99482.97;;;13.01;100.00
69751;BME280;57335;52.288;6.056;2023-03-13T09:34:37;99492.75;;;13.05;100.00
69751;BME280;57335;52.288;6.056;2023-03-13T09:37:04;99475.34;;;12.99;100.00
69751;BME280;57335;52.288;6.056;2023-03-13T09:39:30;99465.88;;;12.98;100.00
69751;BME280;57335;52.288;6.056;2023-03-13T09:42:25;99479.06;;;13.03;100.00
69751;BME280;57335;52.288;6.056;2023-03-13T09:45:03;99458.00;;;13.03;100.00
69751;BME280;57335;52.288;6.056;2023-03-13T09:48:17;99470.69;;;13.16;100.00
69751;BME280;57335;52.288;6.056;2023-03-13T09:50:33;99449.13;;;13.25;100.00
69751;BME280;57335;52.288;6.056;2023-03-13T09:53:12;99446.09;;;13.48;100.00
69751;BME280;57335;52.288;6.056;2023-03-13T09:55:41;99438.78;;;13.76;100.00
69751;BME280;57335;52.288;6.056;2023-03-13T09:58:20;99449.63;;;14.15;96.13
69751;BME280;57335;52.288;6.056;2023-03-13T10:00:51;99446.19;;;14.35;93.59
69751;BME280;57335;52.288;6.056;2023-03-13T10:03:38;99442.22;;;14.48;90.73
69751;BME280;57335;52.288;6.056;2023-03-13T10:06:18;99433.00;;;14.56;91.40
69751;BME280;57335;52.288;6.056;2023-03-13T10:08:44;99429.03;;;14.59;90.11
69751;BME280;57335;52.288;6.056;2023-03-13T10:16:49;99421.63;;;14.71;87.74
69751;BME280;57335;52.288;6.056;2023-03-13T10:19:27;99393.69;;;14.70;89.20
69751;BME280;57335;52.288;6.056;2023-03-13T10:21:57;99412.59;;;14.92;87.73
69751;BME280;57335;52.288;6.056;2023-03-13T10:24:37;99397.75;;;15.07;86.56
69751;BME280;57335;52.288;6.056;2023-03-13T10:27:08;99388.16;;;15.26;87.47
69751;BME280;57335;52.288;6.056;2023-03-13T10:29:34;99405.50;;;15.43;84.36
69751;BME280;57335;52.288;6.056;2023-03-13T10:32:06;99395.38;;;15.55;85.36
69751;BME280;57335;52.288;6.056;2023-03-13T10:34:55;99376.75;;;15.81;83.66
69751;BME280;57335;52.288;6.056;2023-03-13T10:37:27;99382.97;;;15.95;81.19
69751;BME280;57335;52.288;6.056;2023-03-13T10:40:11;99376.03;;;16.04;81.11
69751;BME280;57335;52.288;6.056;2023-03-13T10:42:44;99372.41;;;16.24;81.41
69751;BME280;57335;52.288;6.056;2023-03-13T10:45:17;99363.53;;;16.39;77.50
69751;BME280;57335;52.288;6.056;2023-03-13T10:47:44;99371.69;;;16.43;76.40
69751;BME280;57335;52.288;6.056;2023-03-13T10:50:20;99353.06;;;16.53;75.16
69751;BME280;57335;52.288;6.056;2023-03-13T10:52:48;99373.19;;;16.54;76.95
69751;BME280;57335;52.288;6.056;2023-03-13T10:55:19;99397.41;;;16.61;75.66
69751;BME280;57335;52.288;6.056;2023-03-13T11:00:29;99371.97;;;16.41;74.61
69751;BME280;57335;52.288;6.056;2023-03-13T11:02:58;99386.28;;;16.40;75.81
69751;BME280;57335;52.288;6.056;2023-03-13T11:05:28;99384.13;;;16.42;74.78
69751;BME280;57335;52.288;6.056;2023-03-13T11:07:55;99375.72;;;16.35;75.75
69751;BME280;57335;52.288;6.056;2023-03-13T11:10:26;99392.69;;;16.34;75.67
69751;BME280;57335;52.288;6.056;2023-03-13T11:12:55;99381.53;;;16.37;75.80
69751;BME280;57335;52.288;6.056;2023-03-13T11:15:42;99358.47;;;16.43;74.22
69751;BME280;57335;52.288;6.056;2023-03-13T11:20:45;99355.38;;;16.60;71.22
69751;BME280;57335;52.288;6.056;2023-03-13T11:23:28;99370.75;;;16.82;72.70
69751;BME280;57335;52.288;6.056;2023-03-13T11:29:14;99354.41;;;17.18;68.24
69751;BME280;57335;52.288;6.056;2023-03-13T11:31:50;99319.28;;;17.31;66.88
69751;BME280;57335;52.288;6.056;2023-03-13T11:34:21;99337.16;;;17.39;65.69
69751;BME280;57335;52.288;6.056;2023-03-13T11:36:59;99332.00;;;17.48;65.32
69751;BME280;57335;52.288;6.056;2023-03-13T11:42:12;99328.78;;;17.51;66.52
69751;BME280;57335;52.288;6.056;2023-03-13T11:47:58;99305.56;;;17.62;64.67
69751;BME280;57335;52.288;6.056;2023-03-13T11:50:33;99309.50;;;17.64;64.93
69751;BME280;57335;52.288;6.056;2023-03-13T11:55:57;99311.75;;;17.71;65.12
69751;BME280;57335;52.288;6.056;2023-03-13T11:58:34;99308.19;;;17.62;65.67
69751;BME280;57335;52.288;6.056;2023-03-13T12:01:13;99310.00;;;17.66;65.97
69751;BME280;57335;52.288;6.056;2023-03-13T12:03:58;99322.16;;;17.67;65.58
69751;BME280;57335;52.288;6.056;2023-03-13T12:06:31;99320.66;;;17.61;67.57
69751;BME280;57335;52.288;6.056;2023-03-13T12:11:32;99303.13;;;17.32;68.25
69751;BME280;57335;52.288;6.056;2023-03-13T12:14:04;99320.56;;;17.33;69.36
69751;BME280;57335;52.288;6.056;2023-03-13T12:16:43;99317.06;;;17.38;68.82
69751;BME280;57335;52.288;6.056;2023-03-13T12:19:15;99307.25;;;17.39;69.91
69751;BME280;57335;52.288;6.056;2023-03-13T12:21:49;99317.56;;;17.40;69.82
69751;BME280;57335;52.288;6.056;2023-03-13T12:24:42;99301.88;;;17.44;69.66
69751;BME280;57335;52.288;6.056;2023-03-13T12:27:26;99291.75;;;17.32;69.48
69751;BME280;57335;52.288;6.056;2023-03-13T12:30:02;99272.41;;;17.31;72.13
69751;BME280;57335;52.288;6.056;2023-03-13T12:35:27;99265.63;;;17.58;68.04
69751;BME280;57335;52.288;6.056;2023-03-13T12:38:00;99283.31;;;17.77;67.50
69751;BME280;57335;52.288;6.056;2023-03-13T12:40:37;99254.66;;;17.79;63.43
69751;BME280;57335;52.288;6.056;2023-03-13T12:43:16;99266.25;;;17.83;64.05
69751;BME280;57335;52.288;6.056;2023-03-13T12:48:44;99266.16;;;17.74;63.82
69751;BME280;57335;52.288;6.056;2023-03-13T12:54:27;99276.06;;;17.68;61.83
69751;BME280;57335;52.288;6.056;2023-03-13T13:00:20;99252.19;;;17.54;58.18
69751;BME280;57335;52.288;6.056;2023-03-13T13:03:22;99252.25;;;17.49;59.06
69751;BME280;57335;52.288;6.056;2023-03-13T13:06:09;99241.44;;;17.32;59.68
69751;BME280;57335;52.288;6.056;2023-03-13T13:08:39;99220.22;;;17.18;60.73
69751;BME280;57335;52.288;6.056;2023-03-13T13:11:34;99226.88;;;17.29;60.94
69751;BME280;57335;52.288;6.056;2023-03-13T13:16:49;99216.91;;;17.26;61.01
69751;BME280;57335;52.288;6.056;2023-03-13T13:25:01;99222.59;;;17.01;63.04
69751;BME280;57335;52.288;6.056;2023-03-13T13:27:47;99216.13;;;17.07;64.13
69751;BME280;57335;52.288;6.056;2023-03-13T13:32:48;99207.88;;;17.27;63.59
69751;BME280;57335;52.288;6.056;2023-03-13T13:37:48;99218.88;;;17.34;63.49
69751;BME280;57335;52.288;6.056;2023-03-13T13:47:47;99215.25;;;17.11;64.17
69751;BME280;57335;52.288;6.056;2023-03-13T13:50:26;99208.75;;;17.04;62.86
69751;BME280;57335;52.288;6.056;2023-03-13T13:53:29;99216.56;;;16.95;63.89
69751;BME280;57335;52.288;6.056;2023-03-13T13:55:56;99187.97;;;16.78;64.62
69751;BME280;57335;52.288;6.056;2023-03-13T13:58:26;99195.75;;;16.69;64.14
69751;BME280;57335;52.288;6.056;2023-03-13T14:00:58;99199.53;;;16.63;64.40
69751;BME280;57335;52.288;6.056;2023-03-13T14:03:27;99202.63;;;16.51;64.77
69751;BME280;57335;52.288;6.056;2023-03-13T14:05:59;99209.91;;;16.60;65.73
69751;BME280;57335;52.288;6.056;2023-03-13T14:08:31;99208.78;;;16.66;64.96
69751;BME280;57335;52.288;6.056;2023-03-13T14:11:17;99208.78;;;16.66;63.80
69751;BME280;57335;52.288;6.056;2023-03-13T14:14:10;99218.06;;;16.63;65.69
69751;BME280;57335;52.288;6.056;2023-03-13T14:16:37;99219.38;;;16.66;65.74